Time;durP1;ratioP1;P1;durP2;ratioP2;P2;SDS_P1;SDS_P2;PMS_P1;PMS_P2;Temp;Humidity;BMP_temperature;BMP_pressure;BME280_temperature;BME280_humidity;BME280_pressure;Samples;Min_cycle;Max_cycle;Signal;HPM_P1;HPM_P2
2023/02/06 00:01:44;;;;;;;69.60;23.50;;;;;;;;;;109874;1284;22077;-78
2023/02/06 00:07:39;;;;;;;;;;;;;;;;;;;;;
2023/02/06 00:10:38;;;;;;;55.30;20.50;;;;;;;;;;109908;1260;23028;-79
2023/02/06 00:16:35;;;;;;;73.30;23.50;;;;;;;;;;109913;1284;22190;-78
2023/02/06 00:19:09;;;;;;;59.50;22.10;;;;;;;;;;109920;1263;22568;-78
2023/02/06 00:22:02;;;;;;;61.10;22.40;;;;;;;;;;110035;1280;22875;-79
2023/02/06 00:24:49;;;;;;;61.10;22.30;;;;;;;;;;110131;1278;22388;-79
2023/02/06 00:27:22;;;;;;;58.90;21.50;;;;;;;;;;110147;1279;22136;-78
2023/02/06 00:29:51;;;;;;;63.00;22.70;;;;;;;;;;110215;1261;22166;-78
2023/02/06 00:32:52;;;;;;;;;;;;;;;;;;;;;
2023/02/06 00:46:50;;;;;;;51.70;19.00;;;;;;;;;;109615;1290;22171;-78
2023/02/06 01:01:13;;;;;;;56.00;19.80;;;;;;;;;;109767;1257;22169;-78
2023/02/06 01:11:55;;;;;;;;;;;;;;;;;;;;;
2023/02/06 01:18:32;;;;;;;49.90;17.50;;;;;;;;;;109931;1285;22184;-79
2023/02/06 01:21:51;;;;;;;;;;;;;;;;;;;;;
2023/02/06 01:24:49;;;;;;;61.20;21.20;;;;;;;;;;109798;1269;22183;-79
2023/02/06 01:35:15;;;;;;;75.80;25.60;;;;;;;;;;104874;1286;546039;-81
2023/02/06 01:37:48;;;;;;;68.20;27.20;;;;;;;;;;106331;1285;25279;-82
2023/02/06 01:40:15;;;;;;;73.60;27.90;;;;;;;;;;106405;1282;25285;-81
2023/02/06 01:42:42;;;;;;;69.90;27.00;;;;;;;;;;106440;1282;24280;-81
2023/02/06 01:45:27;;;;;;;73.10;27.80;;;;;;;;;;106465;1283;22834;-82
2023/02/06 01:48:01;;;;;;;75.60;27.00;;;;;;;;;;103165;1272;5380878;-84
2023/02/06 01:50:55;;;;;;;76.70;28.50;;;;;;;;;;107079;1272;26710;-82
2023/02/06 01:53:45;;;;;;;73.90;26.20;;;;;;;;;;107177;1272;22522;-86
2023/02/06 01:56:37;;;;;;;;;;;;;;;;;;;;;
2023/02/06 01:59:46;;;;;;;63.00;26.40;;;;;;;;;;107237;1272;22510;-82
2023/02/06 02:02:41;;;;;;;53.10;20.50;;;;;;;;;;107265;1272;22533;-84
2023/02/06 02:05:10;;;;;;;65.80;24.20;;;;;;;;;;107251;1255;25461;-83
2023/02/06 02:07:49;;;;;;;71.70;28.10;;;;;;;;;;107115;1272;22581;-82
2023/02/06 02:10:22;;;;;;;70.00;27.60;;;;;;;;;;107033;1272;22530;-81
2023/02/06 02:12:51;;;;;;;75.10;27.70;;;;;;;;;;106900;1250;24187;-85
2023/02/06 02:15:53;;;;;;;77.30;29.30;;;;;;;;;;107115;1256;22579;-82
2023/02/06 02:18:40;;;;;;;83.60;30.50;;;;;;;;;;107219;1272;22536;-81
2023/02/06 02:21:06;;;;;;;76.40;29.60;;;;;;;;;;107100;1272;22524;-86
2023/02/06 02:23:45;;;;;;;72.20;28.10;;;;;;;;;;107173;1272;22651;-82
2023/02/06 02:26:37;;;;;;;71.30;27.30;;;;;;;;;;107258;1253;24355;-83
2023/02/06 02:29:32;;;;;;;68.00;26.50;;;;;;;;;;107124;1274;22539;-82
2023/02/06 02:32:20;;;;;;;72.80;26.40;;;;;;;;;;106945;1274;23090;-82
2023/02/06 02:34:52;;;;;;;75.40;24.30;;;;;;;;;;106461;1281;22544;-81
2023/02/06 02:37:33;;;;;;;96.30;34.60;;;;;;;;;;106491;1280;25344;-82
2023/02/06 02:40:17;;;;;;;98.00;35.70;;;;;;;;;;106598;1280;22521;-85
2023/02/06 02:43:07;;;;;;;101.80;35.20;;;;;;;;;;106475;1280;25374;-82
2023/02/06 02:45:43;;;;;;;87.70;32.10;;;;;;;;;;106581;1260;22540;-84
2023/02/06 02:48:17;;;;;;;79.30;30.10;;;;;;;;;;106501;1278;22516;-83
2023/02/06 02:50:49;;;;;;;74.90;29.20;;;;;;;;;;106614;1281;24372;-82
2023/02/06 02:53:30;;;;;;;;;;;;;;;;;;;;;
2023/02/06 02:56:13;;;;;;;74.70;29.90;;;;;;;;;;106537;1280;24208;-82
2023/02/06 02:59:22;;;;;;;;;;;;;;;;;;;;;
2023/02/06 03:02:29;;;;;;;45.40;18.50;;;;;;;;;;106491;1280;25370;-82
2023/02/06 03:05:03;;;;;;;52.70;18.80;;;;;;;;;;106509;1280;25241;-82
2023/02/06 03:07:42;;;;;;;42.80;16.20;;;;;;;;;;106530;1262;22534;-81
2023/02/06 03:10:24;;;;;;;46.10;18.40;;;;;;;;;;106496;1281;24234;-85
2023/02/06 03:13:04;;;;;;;49.50;19.30;;;;;;;;;;106788;1274;22527;-85
2023/02/06 03:16:10;;;;;;;51.10;19.50;;;;;;;;;;107010;1274;22533;-84
2023/02/06 03:19:00;;;;;;;48.70;17.30;;;;;;;;;;106979;1259;23873;-80
2023/02/06 03:21:50;;;;;;;50.80;16.70;;;;;;;;;;106501;1281;22558;-81
2023/02/06 03:24:20;;;;;;;36.90;14.70;;;;;;;;;;106412;1282;25554;-82
2023/02/06 03:27:55;;;;;;;37.20;13.50;;;;;;;;;;106535;1263;22552;-82
2023/02/06 03:30:21;;;;;;;39.00;13.60;;;;;;;;;;106735;1280;22553;-82
2023/02/06 03:32:52;;;;;;;33.00;13.30;;;;;;;;;;106548;1280;25386;-82
2023/02/06 03:35:50;;;;;;;33.90;14.20;;;;;;;;;;106597;1280;24267;-81
2023/02/06 03:38:44;;;;;;;40.60;13.90;;;;;;;;;;106459;1262;25291;-82
2023/02/06 03:41:12;;;;;;;32.10;11.80;;;;;;;;;;106709;1278;22624;-85
2023/02/06 03:43:54;;;;;;;30.70;11.70;;;;;;;;;;106532;1278;25325;-83
2023/02/06 03:46:44;;;;;;;30.30;12.20;;;;;;;;;;106734;1280;26503;-82
2023/02/06 03:49:52;;;;;;;36.10;12.50;;;;;;;;;;106599;1262;25397;-81
2023/02/06 03:52:44;;;;;;;31.80;12.00;;;;;;;;;;106537;1281;22540;-81
2023/02/06 03:55:31;;;;;;;31.40;11.90;;;;;;;;;;106499;1278;21718;-85
2023/02/06 03:59:08;;;;;;;29.30;10.70;;;;;;;;;;106739;1262;25288;-83
2023/02/06 04:01:22;;;;;;;31.50;11.60;;;;;;;;;;107206;1273;23533;-79
2023/02/06 04:03:52;;;;;;;31.70;12.80;;;;;;;;;;107152;1273;22530;-81
2023/02/06 04:06:36;;;;;;;29.40;11.60;;;;;;;;;;107186;1273;23761;-82
2023/02/06 04:09:45;;;;;;;29.80;11.50;;;;;;;;;;107244;1274;24207;-82
2023/02/06 04:12:26;;;;;;;35.00;13.20;;;;;;;;;;106939;1274;25332;-84
2023/02/06 04:15:05;;;;;;;33.70;12.90;;;;;;;;;;106981;1273;24395;-86
2023/02/06 04:17:40;;;;;;;32.50;13.10;;;;;;;;;;106933;1273;25336;-80
2023/02/06 04:20:28;;;;;;;34.90;13.20;;;;;;;;;;106846;1267;22527;-81
2023/02/06 04:23:15;;;;;;;32.80;12.70;;;;;;;;;;106768;1273;22561;-82
2023/02/06 04:25:42;;;;;;;33.50;13.00;;;;;;;;;;107137;1273;22540;-82
2023/02/06 04:28:12;;;;;;;33.20;12.50;;;;;;;;;;107044;1273;22529;-81
2023/02/06 04:31:01;;;;;;;29.80;12.10;;;;;;;;;;107180;1273;22528;-86
2023/02/06 04:33:30;;;;;;;39.00;13.80;;;;;;;;;;107148;1273;22526;-83
2023/02/06 04:37:06;;;;;;;33.30;12.90;;;;;;;;;;106916;1273;22576;-82
2023/02/06 04:39:52;;;;;;;;;;;;;;;;;;;;;
2023/02/06 04:42:41;;;;;;;34.30;13.30;;;;;;;;;;107192;1272;22633;-83
2023/02/06 04:45:31;;;;;;;36.80;12.80;;;;;;;;;;107207;1272;25226;-83
2023/02/06 04:48:03;;;;;;;34.50;14.00;;;;;;;;;;107222;1272;22530;-86
2023/02/06 04:50:56;;;;;;;33.60;13.70;;;;;;;;;;106904;1273;26458;-80
2023/02/06 04:53:39;;;;;;;37.10;14.50;;;;;;;;;;107191;1273;22530;-86
2023/02/06 04:56:56;;;;;;;37.30;15.50;;;;;;;;;;106898;1273;23130;-81
2023/02/06 04:58:58;;;;;;;39.90;16.90;;;;;;;;;;106964;1267;25272;-80
2023/02/06 05:01:33;;;;;;;36.20;15.30;;;;;;;;;;106940;1272;22758;-81
2023/02/06 05:05:12;;;;;;;33.80;13.40;;;;;;;;;;107271;1272;22517;-82
2023/02/06 05:07:43;;;;;;;;;;;;;;;;;;;;;
2023/02/06 05:10:26;;;;;;;;;;;;;;;;;;;;;
2023/02/06 05:13:27;;;;;;;29.50;12.50;;;;;;;;;;107090;1274;23463;-82
2023/02/06 05:17:19;;;;;;;34.20;14.30;;;;;;;;;;107175;1273;22637;-85
2023/02/06 05:20:33;;;;;;;;;;;;;;;;;;;;;
2023/02/06 05:26:29;;;;;;;38.20;12.70;;;;;;;;;;106329;1286;23761;-81
2023/02/06 05:32:28;;;;;;;31.80;12.00;;;;;;;;;;106034;1267;25718;-85
2023/02/06 05:35:14;;;;;;;36.20;12.80;;;;;;;;;;106070;1287;23919;-82
2023/02/06 05:37:56;;;;;;;32.40;11.10;;;;;;;;;;106079;1287;22809;-82
2023/02/06 05:40:51;;;;;;;28.60;11.80;;;;;;;;;;105976;1275;26534;-82
2023/02/06 05:43:44;;;;;;;28.90;11.50;;;;;;;;;;105531;1293;25373;-81
2023/02/06 05:46:25;;;;;;;34.60;12.90;;;;;;;;;;105600;1293;22542;-83
2023/02/06 05:49:28;;;;;;;35.20;13.70;;;;;;;;;;105741;1293;24395;-84
2023/02/06 05:52:18;;;;;;;28.80;11.70;;;;;;;;;;105718;1276;24271;-82
2023/02/06 05:55:21;;;;;;;;;;;;;;;;;;;;;
2023/02/06 05:58:15;;;;;;;38.70;13.10;;;;;;;;;;105775;1293;27011;-82
2023/02/06 06:01:28;;;;;;;;;;;;;;;;;;;;;
2023/02/06 06:04:17;;;;;;;39.70;14.40;;;;;;;;;;106422;1282;24197;-84
2023/02/06 06:06:49;;;;;;;45.40;16.40;;;;;;;;;;106446;1281;22591;-82
2023/02/06 06:09:20;;;;;;;41.10;16.00;;;;;;;;;;106459;1281;22533;-81
2023/02/06 06:11:50;;;;;;;44.40;17.40;;;;;;;;;;106430;1265;22563;-81
2023/02/06 06:14:37;;;;;;;34.60;15.10;;;;;;;;;;106468;1276;22667;-81
2023/02/06 06:17:04;;;;;;;36.00;15.50;;;;;;;;;;106445;1275;26602;-85
2023/02/06 06:20:12;;;;;;;38.10;14.20;;;;;;;;;;106485;1281;23354;-82
2023/02/06 06:22:47;;;;;;;44.90;16.10;;;;;;;;;;107005;1260;22539;-81
2023/02/06 06:25:33;;;;;;;37.70;17.10;;;;;;;;;;106943;1274;24310;-82
2023/02/06 06:28:16;;;;;;;41.10;16.00;;;;;;;;;;107246;1270;22530;-82
2023/02/06 06:30:48;;;;;;;42.30;15.80;;;;;;;;;;106824;1275;22790;-81
2023/02/06 06:33:56;;;;;;;39.60;15.80;;;;;;;;;;106764;1271;25226;-82
2023/02/06 06:36:59;;;;;;;37.10;14.50;;;;;;;;;;106691;1280;22537;-83
2023/02/06 06:39:45;;;;;;;38.10;14.10;;;;;;;;;;106775;1280;25488;-83
2023/02/06 06:42:34;;;;;;;;;;;;;;;;;;;;;
2023/02/06 06:45:45;;;;;;;37.40;13.80;;;;;;;;;;106996;1273;21722;-84
2023/02/06 06:48:17;;;;;;;46.30;14.60;;;;;;;;;;106603;1271;25340;-81
2023/02/06 06:50:59;;;;;;;54.60;18.30;;;;;;;;;;106830;1270;22557;-82
2023/02/06 06:53:38;;;;;;;50.10;17.60;;;;;;;;;;106736;1275;22538;-81
2023/02/06 06:56:12;;;;;;;54.50;18.40;;;;;;;;;;106619;1279;22534;-84
2023/02/06 06:58:49;;;;;;;53.30;19.80;;;;;;;;;;106517;1278;22628;-83
2023/02/06 07:02:04;;;;;;;53.70;20.80;;;;;;;;;;106779;1279;25456;-81
2023/02/06 07:04:14;;;;;;;57.60;20.80;;;;;;;;;;107591;1264;23187;-84
2023/02/06 07:07:10;;;;;;;50.60;18.90;;;;;;;;;;107118;1252;22650;-82
2023/02/06 07:09:37;;;;;;;54.70;20.60;;;;;;;;;;107130;1274;22983;-82
2023/02/06 07:12:07;;;;;;;51.10;19.20;;;;;;;;;;106955;1274;24240;-79
2023/02/06 07:15:00;;;;;;;56.90;20.00;;;;;;;;;;106962;1268;22539;-82
2023/02/06 07:17:40;;;;;;;73.60;25.60;;;;;;;;;;107174;1275;22546;-80
2023/02/06 07:20:47;;;;;;;62.10;23.60;;;;;;;;;;106933;1275;22523;-83
2023/02/06 07:23:38;;;;;;;58.00;21.00;;;;;;;;;;106809;1273;24221;-83
2023/02/06 07:26:08;;;;;;;49.50;22.40;;;;;;;;;;106732;1278;24223;-80
2023/02/06 07:29:40;;;;;;;52.10;21.70;;;;;;;;;;106853;1278;25466;-81
2023/02/06 07:32:02;;;;;;;53.30;20.60;;;;;;;;;;106742;1278;22537;-81
2023/02/06 07:35:20;;;;;;;;;;;;;;;;;;;;;
2023/02/06 07:38:12;;;;;;;44.60;17.50;;;;;;;;;;106655;1279;25507;-84
2023/02/06 07:40:59;;;;;;;45.40;18.50;;;;;;;;;;106866;1279;22490;-82
2023/02/06 07:44:09;;;;;;;44.50;17.10;;;;;;;;;;106406;1279;22544;-81
2023/02/06 07:47:05;;;;;;;39.30;16.80;;;;;;;;;;106359;1284;22547;-83
2023/02/06 07:49:55;;;;;;;;;;;;;;;;;;;;;
2023/02/06 07:55:23;;;;;;;54.50;20.60;;;;;;;;;;106379;1270;24209;-85
2023/02/06 07:58:25;;;;;;;60.80;20.50;;;;;;;;;;106496;1281;25325;-82
2023/02/06 08:01:35;;;;;;;38.30;15.90;;;;;;;;;;106654;1281;22537;-84
2023/02/06 08:04:07;;;;;;;41.00;13.80;;;;;;;;;;106708;1271;22685;-84
2023/02/06 08:07:01;;;;;;;39.40;14.40;;;;;;;;;;106706;1281;22585;-85
2023/02/06 08:09:33;;;;;;;37.60;14.50;;;;;;;;;;106719;1280;22490;-83
2023/02/06 08:12:14;;;;;;;35.10;14.70;;;;;;;;;;106508;1280;23038;-84
2023/02/06 08:14:57;;;;;;;;;;;;;;;;;;;;;
2023/02/06 08:17:46;;;;;;;36.10;15.40;;;;;;;;;;106746;1281;22558;-81
2023/02/06 08:20:21;;;;;;;37.40;15.20;;;;;;;;;;106643;1281;25271;-82
2023/02/06 08:22:48;;;;;;;34.60;14.40;;;;;;;;;;106667;1275;24347;-83
2023/02/06 08:25:25;;;;;;;36.70;14.00;;;;;;;;;;106768;1275;23058;-84
2023/02/06 08:28:01;;;;;;;37.10;15.30;;;;;;;;;;107087;1275;24373;-84
2023/02/06 08:30:54;;;;;;;38.90;17.10;;;;;;;;;;107104;1275;22539;-82
2023/02/06 08:33:19;;;;;;;41.40;17.80;;;;;;;;;;107208;1273;22530;-82
2023/02/06 08:36:55;;;;;;;45.40;17.30;;;;;;;;;;107216;1257;22515;-83
2023/02/06 08:39:20;;;;;;;42.00;16.30;;;;;;;;;;107197;1273;22534;-85
2023/02/06 08:42:16;;;;;;;39.40;16.60;;;;;;;;;;107165;1273;22529;-84
2023/02/06 08:44:58;;;;;;;;;;;;;;;;;;;;;
2023/02/06 08:48:05;;;;;;;38.10;15.70;;;;;;;;;;107254;1273;22531;-85
2023/02/06 08:50:34;;;;;;;40.30;17.10;;;;;;;;;;107286;1270;25325;-80
2023/02/06 08:56:39;;;;;;;;;;;;;;;;;;;;;
2023/02/06 08:59:33;;;;;;;39.90;17.30;;;;;;;;;;107121;1273;24242;-82
2023/02/06 09:02:34;;;;;;;46.80;18.40;;;;;;;;;;107175;1273;25284;-82
2023/02/06 09:05:03;;;;;;;36.90;16.30;;;;;;;;;;110724;1256;21877;-80
2023/02/06 09:07:30;;;;;;;41.30;16.30;;;;;;;;;;110798;1273;22360;-79
2023/02/06 09:09:57;;;;;;;39.20;16.40;;;;;;;;;;110640;1273;22361;-79
2023/02/06 09:12:26;;;;;;;40.30;17.10;;;;;;;;;;110699;1273;22097;-79
2023/02/06 09:14:53;;;;;;;42.90;17.20;;;;;;;;;;110608;1251;22140;-79
2023/02/06 09:17:20;;;;;;;41.70;18.00;;;;;;;;;;110681;1273;22521;-79
2023/02/06 09:19:47;;;;;;;43.10;18.60;;;;;;;;;;110695;1273;22391;-79
2023/02/06 09:22:16;;;;;;;44.20;18.80;;;;;;;;;;110678;1273;22081;-79
2023/02/06 09:24:45;;;;;;;37.60;15.70;;;;;;;;;;110671;1273;22280;-81
2023/02/06 09:27:12;;;;;;;37.50;15.90;;;;;;;;;;110625;1257;22136;-79
2023/02/06 09:29:39;;;;;;;48.00;19.30;;;;;;;;;;110586;1274;22816;-79
2023/02/06 09:32:06;;;;;;;38.80;15.30;;;;;;;;;;110619;1274;22146;-79
2023/02/06 09:34:33;;;;;;;35.40;15.20;;;;;;;;;;110585;1274;22061;-79
2023/02/06 09:37:01;;;;;;;34.60;15.20;;;;;;;;;;111023;1257;22418;-78
2023/02/06 09:39:28;;;;;;;34.80;14.40;;;;;;;;;;110523;1274;22948;-79
2023/02/06 09:42:02;;;;;;;31.60;13.40;;;;;;;;;;110515;1274;22146;-79
2023/02/06 09:44:28;;;;;;;45.50;16.30;;;;;;;;;;110647;1274;22128;-79
2023/02/06 09:47:07;;;;;;;76.40;23.40;;;;;;;;;;110714;1251;22122;-79
2023/02/06 09:49:38;;;;;;;30.70;11.10;;;;;;;;;;110573;1274;22115;-79
2023/02/06 09:52:21;;;;;;;28.60;10.60;;;;;;;;;;110593;1274;21979;-79
2023/02/06 09:54:57;;;;;;;34.60;12.80;;;;;;;;;;110619;1274;21851;-78
2023/02/06 09:57:37;;;;;;;20.10;9.10;;;;;;;;;;110659;1254;22126;-78
2023/02/06 10:00:19;;;;;;;25.30;10.70;;;;;;;;;;110625;1274;22828;-78
2023/02/06 10:02:55;;;;;;;46.10;17.70;;;;;;;;;;110445;1275;22121;-78
2023/02/06 10:05:31;;;;;;;30.70;14.00;;;;;;;;;;110617;1274;22225;-78
2023/02/06 10:08:14;;;;;;;25.80;12.40;;;;;;;;;;110995;1257;22106;-79
2023/02/06 10:10:54;;;;;;;17.90;8.60;;;;;;;;;;110635;1274;22128;-79
2023/02/06 10:13:26;;;;;;;18.20;7.60;;;;;;;;;;110522;1274;22136;-80
2023/02/06 10:15:56;;;;;;;17.60;7.40;;;;;;;;;;110594;1274;22444;-80
2023/02/06 10:18:35;;;;;;;17.70;7.50;;;;;;;;;;110474;1274;22162;-80
2023/02/06 10:21:23;;;;;;;16.70;7.50;;;;;;;;;;110545;1275;22149;-80
2023/02/06 10:24:01;;;;;;;21.10;8.80;;;;;;;;;;110594;1274;22940;-81
2023/02/06 10:26:28;;;;;;;18.80;8.40;;;;;;;;;;110516;1251;22305;-81
2023/02/06 10:28:56;;;;;;;18.00;8.00;;;;;;;;;;110536;1275;22143;-81
2023/02/06 10:31:23;;;;;;;19.60;8.70;;;;;;;;;;110476;1275;22115;-80
2023/02/06 10:34:08;;;;;;;33.70;22.00;;;;;;;;;;110536;1275;22407;-81
2023/02/06 10:36:53;;;;;;;19.60;9.50;;;;;;;;;;110233;1253;22797;-80
2023/02/06 10:39:26;;;;;;;33.10;11.60;;;;;;;;;;110558;1275;22099;-80
2023/02/06 10:41:58;;;;;;;18.80;8.70;;;;;;;;;;110438;1275;22140;-80
2023/02/06 10:44:30;;;;;;;20.50;8.10;;;;;;;;;;110251;1275;22129;-81
2023/02/06 10:47:00;;;;;;;18.80;7.40;;;;;;;;;;110553;1253;22112;-80
2023/02/06 10:49:37;;;;;;;16.90;7.10;;;;;;;;;;110479;1275;23264;-81
2023/02/06 10:52:23;;;;;;;20.10;7.50;;;;;;;;;;110478;1270;22985;-80
2023/02/06 10:54:51;;;;;;;13.20;4.60;;;;;;;;;;110558;1275;22530;-80
2023/02/06 10:57:19;;;;;;;17.70;8.20;;;;;;;;;;110520;1260;22754;-80
2023/02/06 10:59:47;;;;;;;17.20;8.00;;;;;;;;;;110510;1275;22180;-80
2023/02/06 11:02:25;;;;;;;16.80;7.40;;;;;;;;;;110434;1275;22119;-79
2023/02/06 11:04:52;;;;;;;18.10;8.00;;;;;;;;;;110428;1270;22915;-78
2023/02/06 11:07:25;;;;;;;17.10;7.30;;;;;;;;;;110511;1254;22167;-79
2023/02/06 11:09:51;;;;;;;16.50;7.50;;;;;;;;;;110435;1275;22129;-79
2023/02/06 11:12:24;;;;;;;15.30;6.70;;;;;;;;;;110409;1275;21726;-79
2023/02/06 11:14:52;;;;;;;12.30;4.90;;;;;;;;;;110463;1275;22386;-78
2023/02/06 11:17:26;;;;;;;12.00;4.60;;;;;;;;;;110479;1254;22153;-79
2023/02/06 11:19:58;;;;;;;9.90;3.90;;;;;;;;;;110255;1275;22564;-79
2023/02/06 11:22:26;;;;;;;11.70;4.80;;;;;;;;;;110437;1269;22200;-79
2023/02/06 11:25:00;;;;;;;11.30;4.20;;;;;;;;;;110245;1275;22134;-78
2023/02/06 11:27:28;;;;;;;11.20;4.80;;;;;;;;;;110245;1255;22030;-80
2023/02/06 11:29:59;;;;;;;13.10;4.80;;;;;;;;;;110221;1275;22837;-79
2023/02/06 11:32:40;;;;;;;10.70;4.60;;;;;;;;;;110431;1275;22153;-80
2023/02/06 11:35:27;;;;;;;13.10;5.70;;;;;;;;;;110439;1276;22142;-80
2023/02/06 11:38:02;;;;;;;15.20;6.50;;;;;;;;;;110442;1254;22340;-80
2023/02/06 11:40:29;;;;;;;21.90;9.40;;;;;;;;;;110263;1275;22134;-80
2023/02/06 11:43:10;;;;;;;19.60;8.80;;;;;;;;;;110476;1275;22739;-79
2023/02/06 11:45:39;;;;;;;15.60;6.40;;;;;;;;;;110357;1275;22123;-79
2023/02/06 11:48:06;;;;;;;18.50;8.30;;;;;;;;;;110530;1254;22148;-80
2023/02/06 11:50:35;;;;;;;12.90;5.60;;;;;;;;;;110383;1275;22137;-80
2023/02/06 11:53:09;;;;;;;14.10;5.90;;;;;;;;;;110228;1275;22199;-80
2023/02/06 11:55:36;;;;;;;11.70;5.40;;;;;;;;;;110251;1275;22138;-79
2023/02/06 11:58:12;;;;;;;15.90;5.90;;;;;;;;;;110257;1257;23224;-81
2023/02/06 12:00:40;;;;;;;14.00;5.50;;;;;;;;;;110605;1275;22117;-80
2023/02/06 12:03:26;;;;;;;17.20;7.10;;;;;;;;;;110411;1275;22123;-80
2023/02/06 12:05:53;;;;;;;14.30;6.20;;;;;;;;;;110455;1275;22130;-79
2023/02/06 12:08:21;;;;;;;14.90;6.20;;;;;;;;;;110469;1252;22816;-79
2023/02/06 12:11:00;;;;;;;18.10;7.80;;;;;;;;;;110212;1275;22088;-79
2023/02/06 12:13:29;;;;;;;16.50;7.60;;;;;;;;;;110449;1275;22202;-82
2023/02/06 12:15:59;;;;;;;15.60;7.00;;;;;;;;;;110492;1275;22278;-80
2023/02/06 12:18:26;;;;;;;16.50;6.80;;;;;;;;;;110461;1264;22163;-80
2023/02/06 12:20:58;;;;;;;14.70;6.40;;;;;;;;;;110464;1276;22126;-79
2023/02/06 12:23:39;;;;;;;16.60;6.30;;;;;;;;;;110484;1275;22120;-79
2023/02/06 12:26:07;;;;;;;26.70;10.00;;;;;;;;;;110215;1275;22818;-80
2023/02/06 12:28:42;;;;;;;13.70;6.00;;;;;;;;;;110371;1276;21885;-80
2023/02/06 12:31:12;;;;;;;14.80;6.50;;;;;;;;;;110832;1255;22836;-79
2023/02/06 12:33:41;;;;;;;17.80;6.60;;;;;;;;;;110590;1276;22138;-80
2023/02/06 12:36:14;;;;;;;13.60;5.60;;;;;;;;;;110216;1276;22171;-79
2023/02/06 12:38:58;;;;;;;14.40;6.10;;;;;;;;;;110617;1276;22362;-80
2023/02/06 12:41:34;;;;;;;16.20;5.80;;;;;;;;;;110672;1260;22112;-79
2023/02/06 12:44:23;;;;;;;18.20;6.60;;;;;;;;;;110413;1276;22889;-80
2023/02/06 12:46:54;;;;;;;16.30;6.00;;;;;;;;;;110462;1276;23436;-79
2023/02/06 12:49:24;;;;;;;17.50;6.00;;;;;;;;;;110191;1254;22226;-79
2023/02/06 12:52:09;;;;;;;15.30;5.90;;;;;;;;;;110247;1276;22862;-78
2023/02/06 12:54:42;;;;;;;15.70;6.10;;;;;;;;;;110429;1276;22980;-79
2023/02/06 12:57:21;;;;;;;19.50;7.60;;;;;;;;;;110231;1276;22812;-79
2023/02/06 12:59:59;;;;;;;14.40;5.50;;;;;;;;;;110669;1253;22550;-79
2023/02/06 13:02:32;;;;;;;15.20;5.90;;;;;;;;;;110494;1276;22799;-78
2023/02/06 13:05:04;;;;;;;15.10;6.60;;;;;;;;;;110380;1276;22893;-78
2023/02/06 13:07:32;;;;;;;17.30;7.90;;;;;;;;;;110487;1276;22869;-78
2023/02/06 13:10:02;;;;;;;19.60;9.30;;;;;;;;;;110259;1254;22174;-78
2023/02/06 13:12:29;;;;;;;15.50;6.70;;;;;;;;;;110618;1276;22186;-78
2023/02/06 13:15:04;;;;;;;18.50;8.20;;;;;;;;;;110427;1276;22424;-78
2023/02/06 13:17:34;;;;;;;17.10;8.50;;;;;;;;;;110421;1276;22137;-79
2023/02/06 13:20:08;;;;;;;19.50;8.50;;;;;;;;;;110372;1253;23237;-78
2023/02/06 13:22:46;;;;;;;22.00;8.20;;;;;;;;;;110391;1276;22132;-78
2023/02/06 13:25:24;;;;;;;25.10;11.90;;;;;;;;;;110198;1276;22132;-78
2023/02/06 13:27:53;;;;;;;42.20;19.40;;;;;;;;;;110446;1276;22799;-78
2023/02/06 13:30:22;;;;;;;20.70;9.30;;;;;;;;;;110309;1254;22179;-78
2023/02/06 13:32:53;;;;;;;22.50;9.80;;;;;;;;;;110526;1263;22106;-78
2023/02/06 13:35:21;;;;;;;23.40;8.10;;;;;;;;;;110366;1276;22160;-78
2023/02/06 13:38:08;;;;;;;23.60;9.90;;;;;;;;;;110397;1276;22087;-78
2023/02/06 13:40:36;;;;;;;30.90;13.10;;;;;;;;;;110289;1254;22180;-78
2023/02/06 13:43:06;;;;;;;18.00;7.90;;;;;;;;;;110399;1276;22182;-78
2023/02/06 13:45:45;;;;;;;23.10;10.40;;;;;;;;;;110486;1276;22106;-78
2023/02/06 13:48:31;;;;;;;18.80;8.90;;;;;;;;;;108767;1276;2117294;-81
2023/02/06 13:51:26;;;;;;;26.20;11.00;;;;;;;;;;110569;1257;22130;-79
2023/02/06 13:54:17;;;;;;;19.30;8.20;;;;;;;;;;110372;1276;23112;-79
2023/02/06 13:56:53;;;;;;;22.90;8.30;;;;;;;;;;110365;1276;22124;-79
2023/02/06 13:59:40;;;;;;;18.00;8.20;;;;;;;;;;110359;1276;22106;-78
2023/02/06 14:02:28;;;;;;;16.40;7.00;;;;;;;;;;110666;1256;22186;-79
2023/02/06 14:05:06;;;;;;;15.80;7.10;;;;;;;;;;110345;1276;22137;-80
2023/02/06 14:08:10;;;;;;;16.40;6.60;;;;;;;;;;110346;1276;22864;-80
2023/02/06 14:11:14;;;;;;;14.50;6.80;;;;;;;;;;110213;1273;22775;-78
2023/02/06 14:13:59;;;;;;;14.60;6.70;;;;;;;;;;110507;1257;22156;-78
2023/02/06 14:16:26;;;;;;;17.40;7.90;;;;;;;;;;110498;1276;22135;-77
2023/02/06 14:19:14;;;;;;;19.60;7.20;;;;;;;;;;110366;1275;22133;-78
2023/02/06 14:22:03;;;;;;;19.10;7.60;;;;;;;;;;110257;1254;22202;-79
2023/02/06 14:35:22;;;;;;;17.70;7.10;;;;;;;;;;110058;1281;22167;-79
2023/02/06 14:38:11;;;;;;;16.80;7.10;;;;;;;;;;109984;1281;22159;-80
2023/02/06 14:40:46;;;;;;;18.30;7.50;;;;;;;;;;109948;1281;22246;-79
2023/02/06 14:43:22;;;;;;;17.60;7.10;;;;;;;;;;110192;1262;22151;-80
2023/02/06 14:45:55;;;;;;;18.50;7.40;;;;;;;;;;110015;1282;22153;-79
2023/02/06 14:48:37;;;;;;;16.70;7.30;;;;;;;;;;110000;1282;22298;-80
2023/02/06 14:51:07;;;;;;;20.50;7.60;;;;;;;;;;110001;1282;22210;-80
2023/02/06 14:53:37;;;;;;;16.50;7.20;;;;;;;;;;110274;1262;22172;-79
2023/02/06 14:56:11;;;;;;;20.20;7.00;;;;;;;;;;110029;1281;22188;-79
2023/02/06 14:58:50;;;;;;;18.70;7.50;;;;;;;;;;110257;1278;22139;-79
2023/02/06 15:01:21;;;;;;;19.40;8.60;;;;;;;;;;110296;1278;22653;-79
2023/02/06 15:03:51;;;;;;;18.30;7.80;;;;;;;;;;110478;1259;23008;-79
2023/02/06 15:06:50;;;;;;;17.30;7.60;;;;;;;;;;110402;1278;22833;-79
2023/02/06 15:09:42;;;;;;;19.10;7.50;;;;;;;;;;110225;1278;22147;-80
2023/02/06 15:12:18;;;;;;;19.80;6.90;;;;;;;;;;110313;1278;22843;-80
2023/02/06 15:14:57;;;;;;;17.00;7.30;;;;;;;;;;110339;1258;23049;-80
2023/02/06 15:17:25;;;;;;;19.10;7.70;;;;;;;;;;110252;1278;22158;-80
2023/02/06 15:19:57;;;;;;;15.90;7.30;;;;;;;;;;110188;1278;22132;-80
2023/02/06 15:22:32;;;;;;;20.50;8.60;;;;;;;;;;110234;1278;22920;-80
2023/02/06 15:25:20;;;;;;;19.70;8.30;;;;;;;;;;110283;1262;22137;-80
2023/02/06 15:27:56;;;;;;;22.40;9.70;;;;;;;;;;110378;1278;22146;-79
2023/02/06 15:30:28;;;;;;;26.30;9.60;;;;;;;;;;110353;1278;22134;-80
2023/02/06 15:32:58;;;;;;;21.20;8.20;;;;;;;;;;110121;1278;22387;-79
2023/02/06 15:35:33;;;;;;;18.30;7.30;;;;;;;;;;110098;1261;22126;-80
2023/02/06 15:38:07;;;;;;;16.00;6.60;;;;;;;;;;110139;1278;22108;-80
2023/02/06 15:40:39;;;;;;;21.30;7.40;;;;;;;;;;110072;1278;22130;-80
2023/02/06 15:43:24;;;;;;;19.90;7.40;;;;;;;;;;110191;1278;22107;-80
2023/02/06 15:45:55;;;;;;;33.50;9.30;;;;;;;;;;110214;1260;22111;-79
2023/02/06 15:48:48;;;;;;;34.00;9.90;;;;;;;;;;110451;1278;22213;-79
2023/02/06 15:51:50;;;;;;;29.40;10.20;;;;;;;;;;110203;1278;22836;-79
2023/02/06 15:54:41;;;;;;;;;;;;;;;;;;;;;
2023/02/06 15:57:34;;;;;;;26.10;10.00;;;;;;;;;;110377;1278;22111;-79
2023/02/06 16:04:37;;;;;;;20.90;8.20;;;;;;;;;;109985;1262;22282;-82
2023/02/06 16:07:17;;;;;;;25.60;9.50;;;;;;;;;;109919;1284;22181;-78
2023/02/06 16:10:06;;;;;;;36.90;13.10;;;;;;;;;;109942;1283;22236;-78
2023/02/06 16:12:37;;;;;;;24.60;9.40;;;;;;;;;;109950;1283;22165;-77
2023/02/06 16:15:29;;;;;;;22.50;9.10;;;;;;;;;;110107;1262;22174;-78
2023/02/06 16:17:59;;;;;;;18.30;8.20;;;;;;;;;;109986;1283;22155;-77
2023/02/06 16:20:33;;;;;;;20.20;8.70;;;;;;;;;;109969;1283;22207;-78
2023/02/06 16:23:31;;;;;;;22.90;8.40;;;;;;;;;;109927;1283;22022;-77
2023/02/06 16:26:10;;;;;;;26.60;9.40;;;;;;;;;;110093;1267;22187;-77
2023/02/06 16:35:38;;;;;;;26.90;9.70;;;;;;;;;;104024;1292;545261;-78
2023/02/06 16:38:12;;;;;;;25.70;10.10;;;;;;;;;;106441;1286;24270;-80
2023/02/06 16:40:53;;;;;;;46.60;14.30;;;;;;;;;;106486;1281;25292;-82
2023/02/06 16:43:24;;;;;;;56.00;18.20;;;;;;;;;;106465;1281;24242;-86
2023/02/06 16:46:01;;;;;;;70.30;22.40;;;;;;;;;;106564;1282;25363;-81
2023/02/06 16:48:28;;;;;;;78.40;24.00;;;;;;;;;;104991;1280;2183861;-83
2023/02/06 16:51:00;;;;;;;69.40;21.70;;;;;;;;;;106770;1281;24357;-85
2023/02/06 16:53:30;;;;;;;58.10;19.20;;;;;;;;;;106791;1280;25341;-81
2023/02/06 16:56:00;;;;;;;60.80;20.20;;;;;;;;;;106436;1263;24020;-80
2023/02/06 16:58:31;;;;;;;66.80;22.60;;;;;;;;;;106561;1270;22683;-84
2023/02/06 17:01:01;;;;;;;56.60;20.80;;;;;;;;;;107165;1275;22537;-84
2023/02/06 17:03:31;;;;;;;56.20;19.60;;;;;;;;;;107030;1275;22525;-81
2023/02/06 17:06:01;;;;;;;54.70;18.70;;;;;;;;;;107108;1260;22499;-83
2023/02/06 17:08:31;;;;;;;44.50;16.30;;;;;;;;;;106876;1276;22540;-80
2023/02/06 17:11:01;;;;;;;48.00;16.90;;;;;;;;;;106894;1275;22527;-81
2023/02/06 17:13:56;;;;;;;40.20;14.40;;;;;;;;;;106922;1277;23147;-83